createdAt,value
2022-09-02T00:01:28.135Z,2.57
2022-09-02T00:04:05.340Z,2.43
2022-09-02T00:06:33.186Z,3.20
2022-09-02T00:09:01.337Z,2.97
2022-09-02T00:11:30.907Z,2.57
2022-09-02T00:14:00.566Z,2.40
2022-09-02T00:16:27.930Z,2.30
2022-09-02T00:18:56.407Z,2.80
2022-09-02T00:21:24.628Z,3.00
2022-09-02T00:23:52.474Z,2.90
2022-09-02T00:26:19.960Z,3.73
2022-09-02T00:28:51.097Z,2.57
2022-09-02T00:31:24.880Z,3.17
2022-09-02T00:33:53.470Z,2.73
2022-09-02T00:36:20.892Z,2.50
2022-09-02T00:38:48.227Z,3.07
2022-09-02T00:41:15.633Z,2.80
2022-09-02T00:43:47.107Z,4.30
2022-09-02T00:46:17.097Z,3.20
2022-09-02T00:49:00.717Z,2.53
2022-09-02T00:51:32.830Z,2.93
2022-09-02T00:54:00.492Z,2.93
2022-09-02T00:56:30.241Z,3.30
2022-09-02T00:58:57.943Z,2.90
2022-09-02T01:01:25.498Z,3.30
2022-09-02T01:03:53.043Z,3.30
2022-09-02T01:06:27.509Z,2.90
2022-09-02T01:09:00.495Z,3.00
2022-09-02T01:11:40.771Z,2.67
2022-09-02T01:14:07.869Z,2.40
2022-09-02T01:16:59.999Z,2.63
2022-09-02T01:19:35.824Z,2.83
2022-09-02T01:22:16.161Z,2.60
2022-09-02T01:24:43.135Z,2.50
2022-09-02T01:27:17.836Z,2.00
2022-09-02T01:29:46.313Z,2.53
2022-09-02T01:32:13.456Z,2.33
2022-09-02T01:34:40.427Z,2.10
2022-09-02T01:37:07.502Z,2.67
2022-09-02T01:39:34.573Z,2.27
2022-09-02T01:42:02.949Z,2.53
2022-09-02T01:44:29.936Z,2.33
2022-09-02T01:46:57.037Z,2.40
2022-09-02T01:49:24.472Z,1.73
2022-09-02T01:51:55.550Z,2.70
2022-09-02T01:54:23.520Z,2.23
2022-09-02T01:56:51.876Z,2.83
2022-09-02T01:59:20.863Z,2.27
2022-09-02T02:01:48.500Z,2.77
2022-09-02T02:04:18.084Z,2.13
2022-09-02T02:06:52.243Z,3.07
2022-09-02T02:09:20.746Z,2.47
2022-09-02T02:11:48.692Z,2.60
2022-09-02T02:14:16.315Z,2.13
2022-09-02T02:16:50.338Z,3.07
2022-09-02T02:19:18.234Z,2.63
2022-09-02T02:21:45.337Z,2.37
2022-09-02T02:24:12.477Z,2.20
2022-09-02T02:26:39.454Z,2.40
2022-09-02T02:29:08.765Z,2.83
2022-09-02T02:31:37.712Z,2.40
2022-09-02T02:34:05.436Z,2.10
2022-09-02T02:36:33.881Z,2.47
2022-09-02T02:39:01.614Z,2.20
2022-09-02T02:41:31.590Z,3.27
2022-09-02T02:43:59.049Z,2.80
2022-09-02T02:46:26.460Z,2.50
2022-09-02T02:48:53.633Z,2.20
2022-09-02T02:51:20.697Z,2.33
2022-09-02T02:53:49.746Z,2.60
2022-09-02T02:56:17.118Z,2.43
2022-09-02T02:58:44.233Z,3.40
2022-09-02T03:01:11.576Z,2.00
2022-09-02T03:03:38.975Z,2.07
2022-09-02T03:06:06.333Z,2.80
2022-09-02T03:08:35.234Z,2.27
2022-09-02T03:11:02.622Z,2.00
2022-09-02T03:13:32.120Z,2.23
2022-09-02T03:16:01.017Z,2.00
2022-09-02T03:18:28.084Z,2.77
2022-09-02T03:20:55.848Z,1.80
2022-09-02T03:23:23.796Z,2.20
2022-09-02T03:25:50.942Z,2.47
2022-09-02T03:28:27.425Z,2.33
2022-09-02T03:30:55.296Z,2.30
2022-09-02T03:33:24.284Z,2.90
2022-09-02T03:35:51.898Z,2.20
2022-09-02T03:38:18.961Z,2.57
2022-09-02T03:40:46.164Z,2.60
2022-09-02T03:43:13.523Z,2.97
2022-09-02T03:45:41.854Z,2.20
2022-09-02T03:48:13.652Z,2.33
2022-09-02T03:50:44.756Z,2.00
2022-09-02T03:53:19.780Z,2.40
2022-09-02T03:55:51.128Z,2.17
2022-09-02T03:58:20.243Z,2.30
2022-09-02T04:00:54.018Z,2.43
2022-09-02T04:03:23.294Z,2.60
2022-09-02T04:05:52.249Z,2.33
2022-09-02T04:08:20.343Z,2.50
2022-09-02T04:10:48.289Z,2.30
2022-09-02T04:13:15.856Z,2.53
2022-09-02T04:15:47.944Z,2.47
2022-09-02T04:19:30.716Z,2.50
2022-09-02T04:22:16.428Z,2.90
2022-09-02T04:24:43.872Z,2.20
2022-09-02T04:27:10.898Z,2.63
2022-09-02T04:29:37.845Z,2.30
2022-09-02T04:32:04.994Z,2.80
2022-09-02T04:34:32.999Z,2.13
2022-09-02T04:37:00.074Z,2.93
2022-09-02T04:39:27.095Z,2.63
2022-09-02T04:41:54.095Z,2.67
2022-09-02T04:44:21.768Z,2.60
2022-09-02T04:46:50.319Z,2.63
2022-09-02T04:49:20.313Z,2.80
2022-09-02T04:51:50.641Z,2.80
2022-09-02T04:54:17.797Z,2.90
2022-09-02T04:56:48.165Z,2.30
2022-09-02T04:59:15.481Z,2.20
2022-09-02T05:01:51.048Z,2.97
2022-09-02T05:04:23.937Z,2.93
2022-09-02T05:06:51.520Z,3.00
2022-09-02T05:09:19.868Z,2.20
2022-09-02T05:11:52.268Z,2.23
2022-09-02T05:14:24.641Z,2.87
2022-09-02T05:16:55.389Z,2.40
2022-09-02T05:19:23.761Z,2.00
2022-09-02T05:21:57.534Z,2.00
2022-09-02T05:24:29.766Z,2.80
2022-09-02T05:27:00.046Z,2.40
2022-09-02T05:29:28.666Z,2.63
2022-09-02T05:31:57.462Z,2.97
2022-09-02T05:34:25.772Z,2.70
2022-09-02T05:36:56.960Z,2.70
2022-09-02T05:39:26.004Z,2.20
2022-09-02T05:41:53.924Z,2.70
2022-09-02T05:44:20.874Z,2.90
2022-09-02T05:46:49.145Z,2.07
2022-09-02T05:49:17.786Z,2.70
2022-09-02T05:52:00.761Z,2.20
2022-09-02T05:54:36.888Z,2.63
2022-09-02T05:57:12.959Z,2.70
2022-09-02T05:59:44.992Z,3.13
2022-09-02T06:02:18.198Z,2.27
2022-09-02T06:04:49.191Z,2.40
2022-09-02T06:07:20.896Z,2.90
2022-09-02T06:09:50.298Z,2.63
2022-09-02T06:12:20.477Z,2.53
2022-09-02T06:14:49.891Z,2.40
2022-09-02T06:17:19.439Z,2.43
2022-09-02T06:19:52.730Z,2.60
2022-09-02T06:22:23.530Z,1.90
2022-09-02T06:24:52.414Z,2.67
2022-09-02T06:27:23.705Z,2.27
2022-09-02T06:29:52.964Z,2.20
2022-09-02T06:32:22.266Z,2.30
2022-09-02T06:34:53.376Z,2.67
2022-09-02T06:37:23.903Z,2.20
2022-09-02T06:39:51.121Z,2.27
2022-09-02T06:42:23.909Z,1.83
2022-09-02T06:45:26.285Z,2.57
2022-09-02T06:47:55.392Z,3.17
2022-09-02T06:50:22.575Z,2.90
2022-09-02T06:52:50.355Z,2.10
2022-09-02T06:55:18.485Z,2.23
2022-09-02T06:57:46.183Z,1.90
2022-09-02T07:00:16.646Z,2.50
2022-09-02T07:02:43.988Z,2.27
2022-09-02T07:05:11.593Z,2.60
2022-09-02T07:07:42.238Z,2.20
2022-09-02T07:10:14.484Z,2.20
2022-09-02T07:12:45.103Z,2.17
2022-09-02T07:15:15.865Z,1.90
2022-09-02T07:17:43.963Z,2.23
2022-09-02T07:20:21.141Z,2.40
2022-09-02T07:22:53.188Z,2.10
2022-09-02T07:25:21.290Z,2.07
2022-09-02T07:27:51.327Z,2.50
2022-09-02T07:30:19.210Z,1.80
2022-09-02T07:32:49.673Z,2.00
2022-09-02T07:35:19.543Z,2.10
2022-09-02T07:37:47.648Z,1.97
2022-09-02T07:40:15.437Z,1.57
2022-09-02T07:42:43.984Z,1.37
2022-09-02T07:45:12.537Z,1.30
2022-09-02T07:47:41.621Z,1.80
2022-09-02T07:50:21.467Z,1.80
2022-09-02T07:52:57.722Z,1.67
2022-09-02T07:55:26.907Z,1.37
2022-09-02T07:57:55.580Z,1.73
2022-09-02T08:00:27.356Z,1.43
2022-09-02T08:02:57.668Z,1.77
2022-09-02T08:05:31.481Z,1.90
2022-09-02T08:07:59.019Z,1.73
2022-09-02T08:10:29.422Z,1.23
2022-09-02T08:13:00.705Z,1.50
2022-09-02T08:15:30.397Z,1.90
2022-09-02T08:17:58.778Z,1.30
2022-09-02T08:20:26.676Z,1.40
2022-09-02T08:23:05.041Z,1.20
2022-09-02T08:25:40.815Z,1.10
2022-09-02T08:28:08.115Z,1.37
2022-09-02T08:30:35.424Z,1.00
2022-09-02T08:33:02.464Z,1.80
2022-09-02T08:35:29.409Z,1.20
2022-09-02T08:38:02.145Z,1.20
2022-09-02T08:40:40.793Z,1.50
2022-09-02T08:43:29.312Z,1.33
2022-09-02T08:46:00.808Z,1.20
2022-09-02T08:48:56.067Z,1.50
2022-09-02T08:51:51.020Z,1.47
2022-09-02T08:54:42.550Z,1.33
2022-09-02T08:57:10.428Z,1.23
2022-09-02T08:59:38.389Z,1.30
2022-09-02T09:02:46.707Z,1.13
2022-09-02T09:05:30.148Z,1.20
2022-09-02T09:08:18.050Z,1.33
2022-09-02T09:11:22.064Z,0.80
2022-09-02T09:14:42.529Z,1.10
2022-09-02T09:17:23.591Z,1.33
2022-09-02T09:19:55.591Z,1.30
2022-09-02T09:22:30.541Z,1.13
2022-09-02T09:24:58.515Z,1.00
2022-09-02T09:27:25.969Z,1.30
2022-09-02T09:29:53.377Z,1.10
2022-09-02T09:32:33.423Z,1.17
2022-09-02T09:35:07.496Z,0.97
2022-09-02T09:37:50.167Z,1.00
2022-09-02T09:40:22.063Z,1.50
2022-09-02T09:43:15.452Z,1.17
2022-09-02T09:45:51.229Z,1.10
2022-09-02T09:48:29.836Z,1.00
2022-09-02T09:50:57.185Z,0.97
2022-09-02T09:53:29.226Z,0.70
2022-09-02T09:56:05.247Z,0.97
2022-09-02T09:58:41.754Z,1.33
2022-09-02T10:01:31.527Z,1.00
2022-09-02T10:04:42.247Z,0.90
2022-09-02T10:06:58.889Z,1.30
2022-09-02T10:09:37.377Z,0.77
2022-09-02T10:12:05.924Z,1.07
2022-09-02T10:14:43.661Z,0.90
2022-09-02T10:17:35.824Z,0.93
2022-09-02T10:20:44.597Z,0.80
2022-09-02T10:23:34.293Z,0.90
2022-09-02T10:29:24.346Z,0.90
2022-09-02T10:32:09.750Z,1.10
2022-09-02T10:35:04.149Z,0.93
2022-09-02T10:38:05.773Z,1.00
2022-09-02T10:40:44.085Z,1.00
2022-09-02T10:43:28.533Z,1.10
2022-09-02T10:45:59.989Z,0.93
2022-09-02T10:48:49.811Z,0.83
2022-09-02T10:51:44.857Z,1.20
2022-09-02T10:54:24.104Z,1.30
2022-09-02T10:57:05.289Z,0.87
2022-09-02T10:59:40.109Z,1.00
2022-09-02T11:02:14.938Z,1.10
2022-09-02T11:04:54.773Z,1.00
2022-09-02T11:07:30.282Z,0.90
2022-09-02T11:10:03.794Z,0.70
2022-09-02T11:12:48.416Z,1.13
2022-09-02T11:15:39.494Z,0.80
2022-09-02T11:18:15.112Z,1.00
2022-09-02T11:21:02.015Z,1.03
2022-09-02T11:23:42.231Z,1.10
2022-09-02T11:26:24.121Z,1.00
2022-09-02T11:29:12.845Z,1.10
2022-09-02T11:31:44.405Z,0.70
2022-09-02T11:34:14.879Z,1.23
2022-09-02T11:36:42.439Z,0.93
2022-09-02T11:39:51.547Z,0.90
2022-09-02T11:42:46.912Z,0.87
2022-09-02T11:45:33.653Z,1.10
2022-09-02T11:48:12.523Z,1.10
2022-09-02T11:50:58.081Z,1.20
2022-09-02T11:53:28.535Z,1.00
2022-09-02T11:56:35.256Z,1.17
2022-09-02T11:59:03.556Z,1.60
2022-09-02T12:02:01.250Z,0.80
2022-09-02T12:07:15.894Z,0.80
2022-09-02T12:09:48.160Z,1.27
2022-09-02T12:12:37.310Z,0.80
2022-09-02T12:15:08.116Z,1.00
2022-09-02T12:17:46.239Z,1.00
2022-09-02T12:20:36.576Z,1.40
2022-09-02T12:23:04.357Z,1.10
2022-09-02T12:25:33.987Z,1.13
2022-09-02T12:28:21.745Z,0.90
2022-09-02T12:31:07.557Z,1.17
2022-09-02T12:33:35.938Z,1.00
2022-09-02T12:36:04.978Z,0.93
2022-09-02T12:38:34.206Z,1.40
2022-09-02T12:41:22.473Z,0.90
2022-09-02T12:44:05.543Z,0.97
2022-09-02T12:46:43.982Z,1.40
2022-09-02T12:49:29.258Z,1.17
2022-09-02T12:52:06.890Z,1.00
2022-09-02T12:54:39.598Z,0.93
2022-09-02T12:57:08.531Z,1.07
2022-09-02T12:59:41.718Z,1.20
2022-09-02T13:02:09.049Z,0.90
2022-09-02T13:05:02.961Z,0.90
2022-09-02T13:08:02.758Z,0.90
2022-09-02T13:11:17.126Z,0.87
2022-09-02T13:13:55.910Z,1.00
2022-09-02T13:16:44.036Z,0.90
2022-09-02T13:19:38.231Z,1.03
2022-09-02T13:22:08.504Z,0.90
2022-09-02T13:24:59.380Z,1.40
2022-09-02T13:28:03.999Z,0.80
2022-09-02T13:31:02.944Z,0.83
2022-09-02T13:33:30.378Z,1.00
2022-09-02T13:35:59.443Z,1.10
2022-09-02T13:38:29.518Z,1.30
2022-09-02T13:40:56.953Z,0.93
2022-09-02T13:43:26.986Z,1.27
2022-09-02T13:45:59.621Z,1.00
2022-09-02T13:48:32.108Z,1.30
2022-09-02T13:51:12.049Z,1.10
2022-09-02T13:54:22.084Z,0.90
2022-09-02T13:56:46.828Z,0.90
2022-09-02T13:59:14.174Z,1.27
2022-09-02T14:01:41.583Z,1.13
2022-09-02T14:04:14.863Z,2.33
2022-09-02T14:06:45.705Z,1.50
2022-09-02T14:09:22.992Z,1.10
2022-09-02T14:11:50.689Z,1.13
2022-09-02T14:14:22.534Z,1.10
2022-09-02T14:16:49.940Z,1.37
2022-09-02T14:19:17.235Z,1.07
2022-09-02T14:21:53.040Z,0.90
2022-09-02T14:24:29.076Z,1.57
2022-09-02T14:26:58.301Z,0.90
2022-09-02T14:29:26.675Z,1.33
2022-09-02T14:32:07.069Z,1.37
2022-09-02T14:34:43.910Z,1.20
2022-09-02T14:37:26.155Z,1.23
2022-09-02T14:40:12.134Z,1.20
2022-09-02T14:42:47.358Z,1.10
2022-09-02T14:45:15.095Z,1.20
2022-09-02T14:47:42.708Z,1.10
2022-09-02T14:50:15.271Z,1.13
2022-09-02T14:52:48.099Z,1.20
2022-09-02T14:55:45.150Z,1.23
2022-09-02T14:58:12.587Z,0.90
2022-09-02T15:00:40.243Z,1.00
2022-09-02T15:03:07.738Z,1.20
2022-09-02T15:05:35.142Z,1.43
2022-09-02T15:08:02.769Z,1.60
2022-09-02T15:10:30.229Z,1.20
2022-09-02T15:12:58.108Z,1.33
2022-09-02T15:15:27.129Z,1.20
2022-09-02T15:17:55.669Z,1.13
2022-09-02T15:20:24.500Z,1.23
2022-09-02T15:22:53.176Z,1.20
2022-09-02T15:25:21.233Z,1.10
2022-09-02T15:27:48.706Z,1.20
2022-09-02T15:30:16.242Z,1.23
2022-09-02T15:32:44.616Z,1.30
2022-09-02T15:35:12.405Z,1.37
2022-09-02T15:37:39.842Z,1.10
2022-09-02T15:40:08.859Z,1.60
2022-09-02T15:42:37.029Z,1.57
2022-09-02T15:45:08.572Z,1.77
2022-09-02T15:47:36.710Z,1.13
2022-09-02T15:50:08.137Z,1.07
2022-09-02T15:52:36.126Z,1.00
2022-09-02T15:55:03.561Z,1.40
2022-09-02T15:57:30.945Z,1.10
2022-09-02T15:59:58.413Z,1.37
2022-09-02T16:02:25.857Z,1.23
2022-09-02T16:04:53.197Z,1.60
2022-09-02T16:07:21.343Z,1.10
2022-09-02T16:09:48.684Z,1.67
2022-09-02T16:12:16.227Z,1.07
2022-09-02T16:14:43.864Z,1.37
2022-09-02T16:17:11.240Z,1.20
2022-09-02T16:19:38.621Z,0.97
2022-09-02T16:22:06.134Z,1.10
2022-09-02T16:24:33.484Z,1.13
2022-09-02T16:27:00.878Z,0.90
2022-09-02T16:29:29.802Z,1.10
2022-09-02T16:32:14.511Z,1.20
2022-09-02T16:34:46.692Z,1.20
2022-09-02T16:37:14.406Z,0.80
2022-09-02T16:39:42.136Z,1.30
2022-09-02T16:42:09.146Z,1.10
2022-09-02T16:44:36.115Z,1.20
2022-09-02T16:47:03.503Z,1.10
2022-09-02T16:49:31.939Z,1.00
2022-09-02T16:51:59.529Z,1.30
2022-09-02T16:54:31.637Z,1.53
2022-09-02T16:57:00.365Z,1.37
2022-09-02T16:59:27.802Z,1.57
2022-09-02T17:01:55.385Z,1.80
2022-09-02T17:04:22.888Z,1.17
2022-09-02T17:06:50.342Z,1.20
2022-09-02T17:09:17.685Z,0.90
2022-09-02T17:11:45.110Z,1.40
2022-09-02T17:14:15.239Z,1.20
2022-09-02T17:16:46.113Z,1.40
2022-09-02T17:19:21.332Z,1.40
2022-09-02T17:21:53.901Z,1.37
2022-09-02T17:24:23.666Z,1.60
2022-09-02T17:26:52.492Z,1.23
2022-09-02T17:29:47.405Z,1.10
2022-09-02T17:32:09.532Z,1.20
2022-09-02T17:34:37.633Z,1.03
2022-09-02T17:37:05.409Z,1.10
2022-09-02T17:39:34.260Z,1.37
2022-09-02T17:42:02.955Z,1.37
2022-09-02T17:44:36.425Z,1.10
2022-09-02T17:47:06.440Z,1.00
2022-09-02T17:49:36.527Z,1.03
2022-09-02T17:52:06.786Z,1.50
2022-09-02T17:54:38.324Z,1.57
2022-09-02T17:57:29.680Z,1.37
2022-09-02T18:00:23.367Z,1.27
2022-09-02T18:03:37.762Z,1.27
2022-09-02T18:06:21.953Z,1.20
2022-09-02T18:08:55.500Z,1.70
2022-09-02T18:11:22.844Z,1.10
2022-09-02T18:14:15.647Z,1.00
2022-09-02T18:17:04.309Z,1.57
2022-09-02T18:20:09.427Z,1.10
2022-09-02T18:23:03.240Z,1.63
2022-09-02T18:25:50.699Z,1.07
2022-09-02T18:28:51.616Z,1.27
2022-09-02T18:31:27.936Z,1.50
2022-09-02T18:34:11.774Z,1.30
2022-09-02T18:36:57.731Z,1.50
2022-09-02T18:39:52.856Z,1.00
2022-09-02T18:42:37.424Z,1.20
2022-09-02T18:45:04.844Z,1.20
2022-09-02T18:47:54.756Z,1.17
2022-09-02T18:53:24.651Z,1.47
2022-09-02T18:55:52.722Z,1.27
2022-09-02T18:58:46.105Z,1.50
2022-09-02T19:01:30.018Z,1.17
2022-09-02T19:04:00.904Z,1.20
2022-09-02T19:06:36.064Z,1.90
2022-09-02T19:09:13.762Z,1.60
2022-09-02T19:11:41.312Z,1.30
2022-09-02T19:14:21.072Z,1.87
2022-09-02T19:16:48.547Z,1.20
2022-09-02T19:19:17.201Z,1.30
2022-09-02T19:22:18.042Z,1.23
2022-09-02T19:24:50.687Z,1.20
2022-09-02T19:27:22.526Z,1.80
2022-09-02T19:29:56.811Z,1.20
2022-09-02T19:32:28.363Z,1.23
2022-09-02T19:34:56.266Z,1.50
2022-09-02T19:37:23.680Z,1.07
2022-09-02T19:39:54.058Z,1.80
2022-09-02T19:42:24.234Z,1.27
2022-09-02T19:44:52.117Z,1.67
2022-09-02T19:50:08.277Z,1.43
2022-09-02T19:52:41.057Z,1.33
2022-09-02T19:55:09.443Z,1.77
2022-09-02T19:57:37.194Z,1.60
2022-09-02T20:00:05.835Z,1.73
2022-09-02T20:02:34.459Z,1.60
2022-09-02T20:05:02.014Z,1.47
2022-09-02T20:07:29.425Z,1.90
2022-09-02T20:09:56.793Z,1.37
2022-09-02T20:12:24.526Z,1.20
2022-09-02T20:14:52.163Z,1.30
2022-09-02T20:17:21.686Z,1.87
2022-09-02T20:19:49.856Z,1.47
2022-09-02T20:22:19.233Z,1.90
2022-09-02T20:24:46.594Z,1.60
2022-09-02T20:27:29.090Z,1.60
2022-09-02T20:30:05.733Z,1.50
2022-09-02T20:32:45.158Z,1.43
2022-09-02T20:35:50.426Z,1.50
2022-09-02T20:38:41.582Z,1.17
2022-09-02T20:41:41.293Z,1.40
2022-09-02T20:44:23.930Z,1.60
2022-09-02T20:47:06.579Z,1.60
2022-09-02T20:49:47.893Z,1.50
2022-09-02T20:52:33.280Z,1.90
2022-09-02T20:55:51.880Z,1.43
2022-09-02T20:59:01.033Z,1.10
2022-09-02T21:01:31.830Z,1.20
2022-09-02T21:04:14.509Z,1.33
2022-09-02T21:06:45.776Z,1.13
2022-09-02T21:09:30.135Z,1.50
2022-09-02T21:12:24.702Z,1.50
2022-09-02T21:15:08.020Z,1.10
2022-09-02T21:17:51.940Z,1.37
2022-09-02T21:20:58.678Z,1.70
2022-09-02T21:23:32.388Z,1.00
2022-09-02T21:26:10.762Z,1.57
2022-09-02T21:29:23.709Z,1.03
2022-09-02T21:32:27.443Z,1.10
2022-09-02T21:35:08.882Z,1.40
2022-09-02T21:37:39.665Z,1.10
2022-09-02T21:40:41.525Z,1.30
2022-09-02T21:43:30.346Z,1.50
2022-09-02T21:46:05.453Z,1.40
2022-09-02T21:48:38.560Z,1.40
2022-09-02T21:51:44.946Z,1.27
2022-09-02T21:54:36.135Z,1.40
2022-09-02T21:57:32.743Z,1.50
2022-09-02T22:00:06.109Z,1.27
2022-09-02T22:02:57.958Z,0.93
2022-09-02T22:05:32.319Z,1.07
2022-09-02T22:08:14.077Z,1.60
2022-09-02T22:10:44.405Z,1.00
2022-09-02T22:13:12.093Z,1.23
2022-09-02T22:15:39.440Z,1.10
2022-09-02T22:18:24.678Z,1.40
2022-09-02T22:21:01.388Z,1.17
2022-09-02T22:23:30.864Z,1.67
2022-09-02T22:26:08.293Z,1.20
2022-09-02T22:28:39.489Z,1.30
2022-09-02T22:31:11.187Z,1.33
2022-09-02T22:33:49.004Z,1.20
2022-09-02T22:36:30.445Z,1.33
2022-09-02T22:39:01.225Z,1.17
2022-09-02T22:41:34.398Z,1.33
2022-09-02T22:44:11.183Z,1.20
2022-09-02T22:47:06.840Z,1.30
2022-09-02T22:49:56.525Z,1.20
2022-09-02T22:52:55.048Z,1.33
2022-09-02T22:55:46.446Z,1.13
2022-09-02T22:58:31.379Z,0.90
2022-09-02T23:01:22.660Z,1.33
2022-09-02T23:04:01.969Z,1.20
2022-09-02T23:06:33.129Z,1.60
2022-09-02T23:09:08.883Z,1.57
2022-09-02T23:11:51.285Z,1.17
2022-09-02T23:15:08.817Z,1.20
2022-09-02T23:18:22.592Z,1.20
2022-09-02T23:20:59.558Z,1.30
2022-09-02T23:23:49.305Z,1.20
2022-09-02T23:26:25.901Z,1.10
2022-09-02T23:29:16.488Z,1.70
2022-09-02T23:32:04.834Z,1.17
2022-09-02T23:34:58.450Z,1.23
2022-09-02T23:37:50.106Z,1.00
2022-09-02T23:40:30.842Z,1.23
2022-09-02T23:42:59.404Z,1.60
2022-09-02T23:45:29.620Z,1.10
2022-09-02T23:48:12.649Z,0.80
2022-09-02T23:51:16.900Z,1.47
2022-09-02T23:53:59.276Z,1.20
2022-09-02T23:56:46.418Z,1.00
2022-09-02T23:59:28.867Z,2.03
